Mosul International Airport

Jump to: basic info | weather | frequencies | runways | comments

Related pages: nearby airports | nearby navaids | notams | map

Basic information (top)

Codes: OSB ORBM
Location: lon 36.305801, lat 43.147400, elev 719 ft / 219 m msl
Status: medium_airport
Scheduled airline service: no
Links: Wikipedia Mobile

Weather (top)

Current conditions (rec'd 2014/06/08 07:00Z):

ORBM 080700Z 33004KT 9000 NSC 36/10 Q1007 NOSIG

Airport forecast (rec'd 2014/06/06 00:27Z):

TAF ORBM 062300Z 0700/0724 VRB03KT 7000 NSC 
      BECMG 0712/0714 27008KT

Frequencies (top)

Verify before use: may be inaccurate or out of date.

APP: 119.45 MHz (APP)
ATIS: 127.25 MHz (INFO)
GND: 132.825 MHz (GND)
HEL: 65.1 MHz (FARP)
PMSV: 131.05 MHz (METRO)
RMP: 128.8 MHz (RAMP OPS)
TWR: 120.2 MHz (TWR)

Runways (top)

15/33: 8,695 x 147 ft (2,650 x 45 m) — paved — not lighted

Latest comments (top)

Reopened to civilian flights: The Mosul airport in Iraq reopened to ... [read]

More... (top)

See also NOTAMs and nearby airports and navaids, or visit the Mosul International Airport page at the main OurAirports website..